Time;durP1;ratioP1;P1;durP2;ratioP2;P2;SDS_P1;SDS_P2;PMS_P1;PMS_P2;Temp;Humidity;BMP_temperature;BMP_pressure;BME280_temperature;BME280_humidity;BME280_pressure;Samples;Min_cycle;Max_cycle;Signal;HPM_P1;HPM_P2
2023/09/20 03:28:48;;;;;;;;;;;;;;;;;;;;;
2023/09/20 03:31:16;;;;;;;17.13;11.95;;;;;;;21.87;53.65;93436.94;6037774;23;20269;-92
2023/09/20 03:33:44;;;;;;;18.77;13.07;;;;;;;21.89;53.95;93448.91;6130399;23;20034;-91
2023/09/20 03:36:15;;;;;;;16.73;11.70;;;;;;;21.90;53.58;93442.13;6140500;23;20014;-92
2023/09/20 03:38:45;;;;;;;;;;;;;;;21.92;53.74;93452.59;6094806;23;20077;-92
2023/09/20 03:41:18;;;;;;;13.50;11.40;;;;;;;21.93;53.61;93436.84;6115462;23;19913;-91
2023/09/20 03:43:46;;;;;;;16.48;12.23;;;;;;;21.94;53.59;93439.06;6101742;23;20469;-91
2023/09/20 03:46:47;;;;;;;;;;;;;;;;;;;;;
2023/09/20 03:49:14;;;;;;;24.58;15.70;;;;;;;22.02;53.68;93441.94;6093691;23;20068;-91
2023/09/20 03:51:48;;;;;;;21.40;14.32;;;;;;;22.01;53.51;93435.69;6109596;23;20021;-92
2023/09/20 03:54:16;;;;;;;30.58;17.02;;;;;;;21.93;52.94;93436.84;6120228;23;20013;-94
2023/09/20 03:56:47;;;;;;;82.03;29.52;;;;;;;21.90;53.52;93425.63;6123017;23;20006;-93
2023/09/20 03:59:17;;;;;;;128.77;34.90;;;;;;;21.94;53.00;93438.31;6166484;23;20025;-92
2023/09/20 04:01:45;;;;;;;72.50;25.10;;;;;;;21.88;53.31;93432.94;6143526;23;20032;-93
2023/09/20 04:04:11;;;;;;;60.28;24.25;;;;;;;21.91;53.50;93429.09;6112431;23;20355;-92
2023/09/20 04:07:11;;;;;;;70.03;26.38;;;;;;;21.89;53.11;93421.38;6122154;23;20001;-94
2023/09/20 04:10:09;;;;;;;62.30;26.40;;;;;;;21.89;53.60;93415.13;6168340;23;20017;-93
2023/09/20 04:13:50;;;;;;;59.67;25.30;;;;;;;21.88;53.07;93417.16;6158672;22;20040;-93
2023/09/20 04:16:41;;;;;;;;;;;;;;;;;;;;;
2023/09/20 04:19:14;;;;;;;80.70;19.50;;;;;;;21.63;49.62;93415.22;6086542;23;20492;-92
2023/09/20 04:21:40;;;;;;;96.70;18.73;;;;;;;21.55;48.44;93421.34;6081823;23;20022;-90
2023/09/20 04:26:52;;;;;;;156.70;43.08;;;;;;;21.53;47.51;93412.16;6223764;22;20058;-90
2023/09/20 04:29:18;;;;;;;123.18;33.45;;;;;;;21.50;47.69;93430.47;6154148;23;20020;-89
2023/09/20 04:32:17;;;;;;;;;;;;;;;;;;;;;
2023/09/20 04:35:04;;;;;;;;;;;;;;;;;;;;;
2023/09/20 04:37:33;;;;;;;60.70;14.73;;;;;;;21.40;47.87;93437.69;6093293;23;20417;-91
2023/09/20 04:40:33;;;;;;;59.90;13.07;;;;;;;21.36;47.96;93434.50;6125412;23;20021;-91
2023/09/20 04:43:05;;;;;;;36.80;8.33;;;;;;;21.28;47.94;93427.41;6201273;23;20017;-91
2023/09/20 04:45:31;;;;;;;71.57;16.13;;;;;;;21.29;47.90;93432.38;6107574;23;20551;-93
2023/09/20 04:50:29;;;;;;;131.10;37.75;;;;;;;21.31;48.36;93440.09;6168112;23;20024;-93
2023/09/20 04:53:04;;;;;;;113.40;26.98;;;;;;;21.26;48.58;93435.44;6115899;23;20052;-93
2023/09/20 04:55:33;;;;;;;48.55;14.38;;;;;;;21.24;48.50;93441.47;6115301;23;20538;-91
2023/09/20 04:58:02;;;;;;;45.17;9.37;;;;;;;21.20;48.63;93432.81;6153115;23;20025;-92
2023/09/20 05:00:33;;;;;;;21.60;6.72;;;;;;;21.17;48.03;93436.59;6115592;23;20235;-91
2023/09/20 05:03:03;;;;;;;16.52;4.82;;;;;;;21.14;48.01;93441.13;6142369;23;20059;-91
2023/09/20 05:05:29;;;;;;;38.78;9.52;;;;;;;21.06;48.23;93436.78;6137208;23;20021;-93
2023/09/20 05:11:49;;;;;;;;;;;;;;;;;;;;;
2023/09/20 05:14:19;;;;;;;21.75;7.93;;;;;;;20.88;48.48;93438.34;6142802;23;20612;-94
2023/09/20 05:16:45;;;;;;;61.72;12.27;;;;;;;20.84;48.32;93441.41;6152985;23;20087;-93
2023/09/20 05:19:32;;;;;;;54.95;12.05;;;;;;;20.85;48.44;93447.66;6139494;23;20031;-93
2023/09/20 05:22:09;;;;;;;27.58;9.02;;;;;;;20.83;48.70;93442.66;6166899;23;20082;-91
2023/09/20 05:31:54;;;;;;;;;;;;;;;;;;;;;
2023/09/20 05:34:21;;;;;;;42.33;10.95;;;;;;;20.84;48.52;93435.16;5951585;24;20084;-95
2023/09/20 05:36:53;;;;;;;27.13;10.68;;;;;;;20.72;48.06;93440.13;5954757;24;20818;-92
2023/09/20 05:39:19;;;;;;;68.32;36.35;;;;;;;20.72;47.94;93434.63;5930738;24;20028;-92
2023/09/20 05:41:45;;;;;;;81.35;38.13;;;;;;;20.72;48.31;93442.13;5948835;24;20054;-93
2023/09/20 05:51:14;;;;;;;;;;;;;;;;;;;;;
2023/09/20 05:53:43;;;;;;;87.95;28.88;;;;;;;20.77;50.18;93433.81;6038373;23;20359;-93
2023/09/20 05:56:19;;;;;;;75.03;22.10;;;;;;;20.71;50.79;93437.91;6171088;22;20020;-90
2023/09/20 06:01:56;;;;;;;55.40;13.85;;;;;;;20.74;51.82;93432.09;6177449;23;20037;-92
2023/09/20 06:04:24;;;;;;;110.20;19.25;;;;;;;20.72;52.22;93431.88;6129941;23;20044;-94
2023/09/20 06:07:14;;;;;;;59.90;12.75;;;;;;;20.81;52.07;93434.22;6148789;23;20024;-91
2023/09/20 06:12:34;;;;;;;23.48;10.40;;;;;;;20.78;52.71;93435.28;6207116;22;20024;-93
2023/09/20 06:15:53;;;;;;;20.48;7.38;;;;;;;20.84;53.16;93438.66;6156933;23;20012;-93
2023/09/20 06:18:19;;;;;;;17.42;4.20;;;;;;;20.86;53.42;93443.63;5984435;23;20030;-93
2023/09/20 06:23:39;;;;;;;6.85;2.90;;;;;;;20.80;53.64;93443.72;6267681;22;20054;-94
2023/09/20 06:26:14;;;;;;;76.10;51.80;;;;;;;20.82;53.49;93434.94;6152912;23;20076;-93
2023/09/20 06:28:44;;;;;;;10.35;7.75;;;;;;;20.89;52.97;93439.84;6178578;22;20016;-93
2023/09/20 06:31:15;;;;;;;10.82;5.28;;;;;;;20.81;53.43;93436.97;6221425;22;20040;-93
2023/09/20 06:37:58;;;;;;;10.32;5.45;;;;;;;20.87;53.41;93434.13;5856934;24;20029;-94
2023/09/20 06:41:17;;;;;;;22.45;11.57;;;;;;;20.82;53.94;93440.44;5773691;24;20325;-93
2023/09/20 06:43:36;;;;;;;32.42;16.70;;;;;;;20.83;53.82;93433.69;5723544;24;20394;-93
2023/09/20 06:46:09;;;;;;;53.97;21.63;;;;;;;20.87;53.81;93428.63;5699757;25;20028;-93
2023/09/20 06:48:40;;;;;;;44.47;19.75;;;;;;;20.88;53.60;93439.09;5683148;25;20107;-93
2023/09/20 06:51:09;;;;;;;;;;;;;;;20.93;53.58;93432.03;5704590;24;20139;-93
2023/09/20 06:53:58;;;;;;;62.35;26.45;;;;;;;20.87;53.47;93439.63;5656791;25;19922;-94
2023/09/20 06:57:18;;;;;;;;;;;;;;;;;;;;;
2023/09/20 07:00:28;;;;;;;58.05;21.95;;;;;;;20.95;53.73;93443.22;5645346;25;20344;-93
2023/09/20 07:03:45;;;;;;;34.35;13.43;;;;;;;20.98;53.67;93444.19;5695310;25;20081;-94
2023/09/20 07:07:08;;;;;;;23.60;11.32;;;;;;;20.99;53.89;93445.66;5650061;25;20506;-94
2023/09/20 07:09:59;;;;;;;15.50;9.35;;;;;;;21.04;53.82;93448.31;5654041;25;20029;-94
2023/09/20 07:12:29;;;;;;;30.83;14.23;;;;;;;21.06;53.95;93447.78;5670822;25;20076;-94
2023/09/20 07:15:06;;;;;;;53.67;18.33;;;;;;;20.98;54.47;93444.19;5825872;24;20050;-92
2023/09/20 07:17:32;;;;;;;45.42;23.02;;;;;;;21.03;54.70;93444.06;5941017;23;20024;-92
2023/09/20 07:20:01;;;;;;;38.88;21.58;;;;;;;21.13;54.36;93442.41;6162876;23;20016;-92
2023/09/20 07:22:46;;;;;;;42.25;24.05;;;;;;;21.11;54.54;93444.94;6061937;23;20015;-93
2023/09/20 07:25:19;;;;;;;49.08;27.38;;;;;;;21.15;54.68;93433.63;6065523;23;20054;-93
2023/09/20 07:27:49;;;;;;;76.03;37.53;;;;;;;21.26;54.77;93438.19;6052741;23;20057;-91
2023/09/20 07:30:19;;;;;;;63.50;38.37;;;;;;;21.19;54.89;93439.56;6011800;23;20558;-92
2023/09/20 07:32:57;;;;;;;97.22;57.38;;;;;;;21.19;54.96;93440.28;6013133;23;20027;-92
2023/09/20 07:35:26;;;;;;;140.20;79.70;;;;;;;21.23;55.02;93434.47;5993593;23;20060;-93
2023/09/20 07:38:07;;;;;;;140.55;84.40;;;;;;;21.23;55.37;93437.22;5988830;23;20102;-91
2023/09/20 07:40:41;;;;;;;143.45;77.20;;;;;;;21.29;55.49;93435.13;5970941;23;20038;-93
2023/09/20 07:43:20;;;;;;;128.70;72.90;;;;;;;21.38;55.64;93437.47;5951543;23;20034;-93
2023/09/20 07:46:20;;;;;;;111.50;68.07;;;;;;;21.38;55.82;93442.22;5995552;23;20027;-90
2023/09/20 07:49:47;;;;;;;117.55;74.13;;;;;;;21.38;56.28;93444.97;6103367;22;20021;-93
2023/09/20 07:52:51;;;;;;;89.53;54.95;;;;;;;21.44;55.87;93440.09;6129861;23;20067;-92
2023/09/20 07:55:17;;;;;;;64.90;37.47;;;;;;;21.44;56.18;93440.81;6015792;23;20086;-94
2023/09/20 07:57:43;;;;;;;72.03;36.22;;;;;;;21.43;56.51;93439.38;5980908;23;20040;-90
2023/09/20 08:00:11;;;;;;;58.92;34.38;;;;;;;21.43;56.28;93438.63;5991650;23;20019;-92
2023/09/20 08:02:38;;;;;;;65.45;33.13;;;;;;;21.44;56.23;93431.84;5986924;23;20106;-94
2023/09/20 08:05:11;;;;;;;59.83;26.02;;;;;;;21.48;56.36;93432.25;5971593;23;20023;-93
2023/09/20 08:07:38;;;;;;;53.40;26.20;;;;;;;21.46;56.78;93435.53;6135247;23;20479;-92
2023/09/20 08:10:04;;;;;;;77.68;29.75;;;;;;;21.48;56.54;93421.25;6138613;23;20029;-92
2023/09/20 08:13:08;;;;;;;58.28;29.48;;;;;;;21.48;56.44;93424.00;6117683;23;20247;-94
2023/09/20 08:20:44;;;;;;;71.50;30.52;;;;;;;21.54;56.27;93400.63;6182512;23;20039;-93
2023/09/20 09:08:10;;;;;;;158.25;43.05;;;;;;;21.74;54.56;93390.94;6225999;22;20083;-93
2023/09/20 09:11:03;;;;;;;116.85;35.55;;;;;;;21.75;54.15;93386.19;6139088;22;20037;-93
2023/09/20 09:14:01;;;;;;;106.18;28.88;;;;;;;21.78;54.14;93380.38;6125336;23;20028;-91
2023/09/20 09:16:51;;;;;;;107.07;26.38;;;;;;;21.76;54.30;93379.41;6121325;23;20017;-93
2023/09/20 09:19:27;;;;;;;100.43;35.60;;;;;;;21.78;54.15;93385.13;6037197;23;20044;-91
2023/09/20 09:22:10;;;;;;;184.80;55.35;;;;;;;21.80;53.88;93377.06;6163276;23;20021;-93
2023/09/20 09:25:04;;;;;;;177.38;65.32;;;;;;;21.81;54.06;93376.53;6145610;23;20043;-93
2023/09/20 09:33:09;;;;;;;87.47;29.25;;;;;;;21.84;53.36;93369.97;6223575;22;20020;-92
2023/09/20 09:35:40;;;;;;;63.20;21.60;;;;;;;21.82;53.10;93363.53;6146057;23;20032;-92
2023/09/20 09:43:47;;;;;;;55.47;18.45;;;;;;;21.88;52.18;93351.09;6185400;22;20028;-93
2023/09/20 09:46:24;;;;;;;54.05;18.48;;;;;;;21.87;52.01;93351.63;6137959;23;20056;-93
2023/09/20 09:48:56;;;;;;;50.80;20.33;;;;;;;21.87;52.30;93346.13;6105617;23;20519;-93
2023/09/20 09:51:59;;;;;;;65.85;20.80;;;;;;;21.89;52.18;93351.84;6056515;23;20014;-92
2023/09/20 09:54:35;;;;;;;86.85;27.17;;;;;;;21.90;52.33;93334.78;6003606;23;20018;-93
2023/09/20 09:57:43;;;;;;;;;;;;;;;;;;;;;
2023/09/20 10:00:19;;;;;;;161.77;48.70;;;;;;;21.94;52.61;93341.97;5884296;24;20358;-93
2023/09/20 10:03:45;;;;;;;156.35;44.22;;;;;;;21.93;52.79;93340.50;6031874;22;20023;-92
2023/09/20 10:06:39;;;;;;;156.63;44.65;;;;;;;21.92;53.13;93330.78;6213039;23;20547;-92
2023/09/20 10:14:43;;;;;;;133.05;38.67;;;;;;;21.96;53.67;93322.91;6186174;22;20024;-92
2023/09/20 10:17:40;;;;;;;55.50;24.58;;;;;;;21.94;54.01;93323.44;6149058;23;19997;-92
2023/09/20 10:20:16;;;;;;;56.55;23.88;;;;;;;21.93;54.17;93316.47;6108520;23;20001;-92
2023/09/20 10:22:52;;;;;;;43.05;20.88;;;;;;;21.95;54.31;93310.44;6138532;23;20021;-92
2023/09/20 10:28:17;;;;;;;33.10;17.17;;;;;;;21.94;54.49;93311.72;6246641;22;20077;-90
2023/09/20 10:31:04;;;;;;;41.72;17.52;;;;;;;21.97;54.21;93316.13;6130383;22;20024;-92
2023/09/20 10:33:55;;;;;;;43.55;17.10;;;;;;;21.96;54.10;93318.16;6240177;23;20050;-92
2023/09/20 10:36:33;;;;;;;33.53;17.60;;;;;;;21.98;54.04;93317.63;6205189;23;20024;-91
2023/09/20 10:39:21;;;;;;;27.65;14.55;;;;;;;21.99;54.02;93322.59;6166959;23;20072;-92
2023/09/20 10:41:55;;;;;;;31.63;14.27;;;;;;;22.02;53.77;93318.06;6113029;23;20022;-93
2023/09/20 10:44:45;;;;;;;38.25;14.73;;;;;;;22.01;53.78;93319.34;6176017;23;20040;-90
2023/09/20 10:47:12;;;;;;;29.67;13.40;;;;;;;22.03;54.07;93312.03;6093426;23;20032;-91
2023/09/20 10:49:41;;;;;;;26.40;12.32;;;;;;;22.02;54.13;93315.31;6140929;23;20021;-90
2023/09/20 10:52:09;;;;;;;21.90;10.90;;;;;;;22.03;54.16;93314.78;6117202;23;20006;-91
2023/09/20 10:54:39;;;;;;;30.58;11.98;;;;;;;22.02;54.11;93305.03;6108112;23;20018;-90
2023/09/20 10:57:10;;;;;;;55.15;15.88;;;;;;;22.03;54.01;93306.50;6124405;23;20030;-92
2023/09/20 11:00:03;;;;;;;74.25;18.88;;;;;;;22.03;53.99;93308.53;6135066;23;20453;-91
2023/09/20 11:07:32;;;;;;;109.65;23.77;;;;;;;22.07;53.38;93309.66;6254572;22;20009;-91
2023/09/20 11:09:58;;;;;;;102.05;25.15;;;;;;;22.08;53.43;93308.41;6142347;23;20037;-90
2023/09/20 11:12:23;;;;;;;104.18;25.95;;;;;;;22.10;53.64;93308.56;6134205;23;20195;-93
2023/09/20 11:14:51;;;;;;;84.22;23.17;;;;;;;22.08;53.40;93305.66;6072661;23;20142;-92
2023/09/20 11:17:22;;;;;;;83.10;26.65;;;;;;;22.09;53.44;93296.09;6127943;23;20022;-89
2023/09/20 11:19:58;;;;;;;85.63;30.20;;;;;;;22.12;53.39;93297.03;6100236;23;20070;-92
2023/09/20 11:22:27;;;;;;;81.90;29.70;;;;;;;22.14;53.09;93291.72;6098334;23;20494;-91
2023/09/20 11:24:54;;;;;;;109.50;37.40;;;;;;;22.12;53.06;93289.50;6049891;23;20022;-91
2023/09/20 11:27:21;;;;;;;96.97;37.17;;;;;;;22.13;53.01;93282.00;6026888;23;20038;-91
2023/09/20 11:29:49;;;;;;;100.30;37.67;;;;;;;22.14;53.15;93280.72;6050472;23;20070;-91
2023/09/20 11:32:15;;;;;;;81.53;33.03;;;;;;;22.13;52.93;93282.00;6075239;23;20062;-91
2023/09/20 11:34:49;;;;;;;77.55;32.90;;;;;;;22.13;52.75;93276.47;6064408;23;20027;-90
2023/09/20 11:37:19;;;;;;;79.47;30.42;;;;;;;22.12;52.66;93275.00;6045303;23;20028;-92
2023/09/20 11:39:45;;;;;;;;;;;;;;;22.15;52.61;93273.94;6151391;23;20478;-90
2023/09/20 11:42:31;;;;;;;89.35;32.50;;;;;;;22.14;52.65;93269.69;6169954;23;19916;-91
2023/09/20 11:44:57;;;;;;;108.35;36.85;;;;;;;22.12;52.37;93270.22;6188881;23;20043;-90
2023/09/20 11:47:31;;;;;;;100.70;32.83;;;;;;;22.12;51.98;93266.75;6159651;23;20033;-91
2023/09/20 11:50:01;;;;;;;84.15;32.22;;;;;;;22.10;52.00;93261.03;6126681;23;20038;-91
2023/09/20 11:52:27;;;;;;;94.93;38.50;;;;;;;22.11;51.87;93257.00;6031891;23;20033;-91
2023/09/20 11:55:03;;;;;;;90.70;36.67;;;;;;;22.13;52.02;93255.19;6102966;23;20659;-91
2023/09/20 11:57:29;;;;;;;99.63;39.10;;;;;;;22.13;52.05;93252.44;6080054;23;20080;-92
2023/09/20 11:59:55;;;;;;;95.13;36.50;;;;;;;22.14;52.07;93248.41;6054160;23;20529;-92
2023/09/20 12:02:42;;;;;;;109.93;35.70;;;;;;;22.11;52.07;93246.72;6051499;23;20026;-90
2023/09/20 12:05:21;;;;;;;175.57;47.10;;;;;;;22.15;52.08;93247.13;6138102;23;20024;-90
2023/09/20 12:07:56;;;;;;;178.63;50.15;;;;;;;22.14;51.90;93242.16;6059123;23;20018;-92
2023/09/20 12:10:22;;;;;;;187.10;63.08;;;;;;;22.15;51.83;93240.88;6133958;23;20029;-90
2023/09/20 12:12:51;;;;;;;265.77;109.07;;;;;;;22.24;51.57;93237.66;6169112;23;20025;-92
2023/09/20 12:15:17;;;;;;;210.15;89.07;;;;;;;22.20;51.39;93237.25;6175631;23;20020;-91
2023/09/20 12:17:42;;;;;;;266.33;115.45;;;;;;;22.23;51.59;93236.19;6127997;23;20020;-93
2023/09/20 12:20:11;;;;;;;244.70;111.25;;;;;;;22.24;51.59;93229.41;6133979;23;20047;-92
2023/09/20 12:22:39;;;;;;;212.80;102.28;;;;;;;22.22;51.49;93229.94;6132266;23;20025;-91
2023/09/20 12:25:06;;;;;;;221.30;94.95;;;;;;;22.27;51.54;93224.84;6171928;23;20446;-91
2023/09/20 12:27:33;;;;;;;234.70;99.60;;;;;;;22.23;51.33;93225.16;6143949;23;20068;-91
2023/09/20 12:30:00;;;;;;;279.20;111.22;;;;;;;22.25;51.28;93225.38;6190301;23;20401;-90
2023/09/20 12:32:27;;;;;;;219.00;94.65;;;;;;;22.31;51.13;93217.69;6146819;23;20076;-90
2023/09/20 12:34:54;;;;;;;242.52;106.13;;;;;;;22.31;51.99;93216.94;6139160;23;20161;-90
2023/09/20 12:37:30;;;;;;;210.68;91.63;;;;;;;22.31;51.81;93200.41;6109497;23;20026;-93
2023/09/20 12:40:05;;;;;;;191.57;79.60;;;;;;;22.40;51.56;93203.44;6073304;23;20089;-92
2023/09/20 12:48:01;;;;;;;137.90;64.38;;;;;;;22.38;51.32;93181.19;6215396;22;20021;-91
2023/09/20 12:50:33;;;;;;;106.97;50.45;;;;;;;22.42;50.99;93176.09;6101789;23;20056;-89
2023/09/20 12:53:17;;;;;;;92.57;46.47;;;;;;;22.41;50.99;93188.38;6066672;23;20061;-94
2023/09/20 13:15:03;;;;;;;96.28;45.17;;;;;;;22.34;50.84;93158.78;6172197;22;20024;-94
2023/09/20 13:18:10;;;;;;;84.03;46.25;;;;;;;22.41;50.97;93151.84;6163209;23;20020;-93
2023/09/20 13:41:41;;;;;;;122.03;39.58;;;;;;;22.40;50.92;93134.56;6204191;22;20014;-93
2023/09/20 13:51:43;;;;;;;;;;;;;;;;;;;;;
2023/09/20 13:54:50;;;;;;;111.43;43.08;;;;;;;22.45;51.20;93116.41;6039119;23;20548;-94
2023/09/20 14:04:21;;;;;;;111.18;40.45;;;;;;;22.48;51.08;93099.53;6285042;22;20034;-93
2023/09/20 14:36:05;;;;;;;264.33;166.65;;;;;;;22.68;51.08;93089.69;6220366;22;20020;-94
2023/09/20 14:38:35;;;;;;;191.70;83.53;;;;;;;22.72;51.04;93086.59;6129350;23;20028;-92
2023/09/20 14:42:20;;;;;;;184.43;75.22;;;;;;;22.70;50.95;93075.38;6149499;23;20048;-93
2023/09/20 14:45:32;;;;;;;152.93;59.33;;;;;;;22.75;50.63;93068.94;6077071;23;20030;-93
2023/09/20 14:48:01;;;;;;;136.32;59.85;;;;;;;22.78;50.77;93071.34;5999992;23;20034;-93
2023/09/20 14:51:14;;;;;;;143.45;62.00;;;;;;;22.79;50.81;93072.84;6032145;23;20017;-92
2023/09/20 14:53:44;;;;;;;137.57;61.05;;;;;;;22.78;50.96;93068.59;5979271;24;20056;-92
2023/09/20 14:59:47;;;;;;;155.02;60.60;;;;;;;22.85;51.12;93061.66;6206599;22;20024;-94
2023/09/20 15:15:58;;;;;;;103.53;42.60;;;;;;;22.85;51.07;93045.84;6209504;22;20032;31
2023/09/20 15:18:24;;;;;;;105.50;44.10;;;;;;;22.88;51.07;93049.53;6213504;22;20597;-92
2023/09/20 15:21:16;;;;;;;106.38;43.55;;;;;;;22.86;50.84;93041.06;6161790;23;20020;-93
